Time;durP1;ratioP1;P1;durP2;ratioP2;P2;SDS_P1;SDS_P2;PMS_P1;PMS_P2;Temp;Humidity;BMP_temperature;BMP_pressure;BME280_temperature;BME280_humidity;BME280_pressure;Samples;Min_cycle;Max_cycle;Signal;HPM_P1;HPM_P2
2022/06/22 00:02:50;;;;;;;0.38;0.38;;;18.20;62.00;;;17.16;48.51;99775.84;9822743;29;97022;-84
2022/06/22 00:07:59;;;;;;;0.68;0.65;;;18.20;61.80;;;17.22;48.67;99782.19;9819824;29;97890;-83
2022/06/22 00:13:04;;;;;;;0.63;0.40;;;18.20;62.10;;;17.26;48.65;99778.81;9832754;29;96642;-87
2022/06/22 00:18:32;;;;;;;0.40;0.40;;;18.20;61.90;;;17.30;48.62;99771.97;9831051;29;96658;-85
2022/06/22 00:23:43;;;;;;;0.85;0.50;;;18.30;61.70;;;17.28;48.69;99768.69;9848984;29;96666;-84
2022/06/22 00:29:05;;;;;;;1.38;0.45;;;18.30;61.80;;;17.26;48.99;99770.75;9799008;29;96810;-84
2022/06/22 00:34:10;;;;;;;0.40;0.30;;;18.30;62.10;;;17.25;48.79;99773.69;9833214;29;96664;-84
2022/06/22 00:39:35;;;;;;;0.85;0.50;;;18.30;62.10;;;17.22;49.03;99788.38;9843200;29;98433;-84
2022/06/22 00:44:52;;;;;;;0.57;0.40;;;18.30;62.10;;;17.26;49.12;99780.69;9841785;29;97163;-84
2022/06/22 00:50:10;;;;;;;0.45;0.45;;;18.30;61.60;;;17.27;49.97;99780.50;9814926;29;96600;-84
2022/06/22 00:55:36;;;;;;;0.60;0.40;;;18.40;62.00;;;17.24;50.05;99788.97;9832307;29;98023;-84
2022/06/22 01:00:58;;;;;;;1.30;0.70;;;18.40;62.30;;;17.11;50.07;99789.91;9840257;29;97139;-84
2022/06/22 01:06:21;;;;;;;1.85;0.85;;;18.20;62.90;;;17.00;50.12;99784.44;9824845;29;98509;-84
2022/06/22 01:17:01;;;;;;;1.60;0.77;;;18.10;63.10;;;16.76;51.60;99778.03;9842169;29;97735;-84
2022/06/22 01:22:46;;;;;;;0.82;0.60;;;17.90;64.60;;;16.56;52.47;99786.22;9829139;29;96922;-85
2022/06/22 01:27:50;;;;;;;0.55;0.50;;;17.70;65.10;;;16.41;52.58;99781.13;9816040;29;96534;-85
2022/06/22 01:32:55;;;;;;;1.77;0.60;;;17.60;65.10;;;16.31;52.89;99778.09;9835899;29;97062;-85
2022/06/22 01:37:58;;;;;;;1.00;0.50;;;17.50;64.60;;;16.22;53.87;99772.16;9817025;29;96820;-85
2022/06/22 01:43:15;;;;;;;0.63;0.35;;;17.50;66.30;;;16.09;54.24;99788.31;9849089;29;96986;-85
2022/06/22 01:48:58;;;;;;;0.90;0.60;;;17.30;66.50;;;15.99;54.21;99763.84;9832834;29;96761;-84
2022/06/22 01:54:32;;;;;;;0.88;0.40;;;17.20;67.10;;;15.78;55.28;99783.72;9836700;29;98012;-84
2022/06/22 02:00:09;;;;;;;1.10;0.63;;;17.00;67.50;;;15.67;55.52;99782.50;9847520;29;97625;-84
2022/06/22 02:05:55;;;;;;;1.20;0.40;;;16.90;67.90;;;15.57;56.54;99783.94;9838336;29;96623;-84
2022/06/22 02:11:16;;;;;;;0.88;0.60;;;16.70;70.00;;;15.49;57.13;99776.97;9839297;29;96679;-84
2022/06/22 02:16:59;;;;;;;1.85;0.75;;;16.70;69.50;;;15.37;57.53;99792.03;9813720;29;96832;-85
2022/06/22 02:22:02;;;;;;;0.90;0.60;;;16.60;70.90;;;15.27;57.59;99805.84;9822004;29;96749;-85
2022/06/22 02:27:18;;;;;;;0.73;0.50;;;16.50;69.90;;;15.20;57.90;99803.16;9832441;29;96739;-84
2022/06/22 02:32:50;;;;;;;0.85;0.60;;;16.40;69.50;;;15.16;58.47;99819.84;9842999;29;96656;-85
2022/06/22 02:38:02;;;;;;;0.93;0.60;;;16.30;71.50;;;15.11;58.58;99822.31;9799716;29;97604;-85
2022/06/22 02:48:30;;;;;;;;;;;16.20;71.60;;;15.02;58.97;99821.72;9849806;29;97053;-85
2022/06/22 02:53:37;;;;;;;0.52;0.40;;;16.20;72.60;;;14.92;59.88;99846.19;9846447;29;97801;-85
2022/06/22 02:58:40;;;;;;;1.40;0.82;;;16.10;72.70;;;14.89;60.25;99841.25;9830672;29;96581;-85
2022/06/22 03:03:54;;;;;;;2.63;1.20;;;16.00;73.00;;;14.89;60.85;99837.75;9844300;29;96584;-84
2022/06/22 03:09:03;;;;;;;0.80;0.55;;;16.00;73.60;;;14.87;60.83;99839.78;9833170;29;98259;-84
2022/06/22 03:14:44;;;;;;;1.20;0.57;;;16.00;73.80;;;14.88;60.40;99841.47;9809309;29;96626;-85
2022/06/22 03:20:07;;;;;;;0.50;0.50;;;16.00;73.30;;;14.90;60.00;99850.94;9830935;29;96659;-83
2022/06/22 03:25:41;;;;;;;0.65;0.55;;;16.00;73.80;;;14.93;60.38;99855.03;9845408;29;96665;-83
2022/06/22 03:31:04;;;;;;;0.75;0.50;;;16.00;73.50;;;14.97;60.62;99849.06;9861565;29;96629;-83
2022/06/22 03:36:21;;;;;;;1.17;0.60;;;16.10;73.40;;;15.10;60.49;99840.22;9846447;29;96571;-83
2022/06/22 03:41:30;;;;;;;1.58;0.60;;;16.10;73.90;;;15.27;60.29;99854.84;9831067;29;96779;-87
2022/06/22 03:46:45;;;;;;;1.05;0.60;;;16.30;73.90;;;15.55;59.33;99859.16;9840972;29;96698;-87
2022/06/22 03:52:02;;;;;;;0.88;0.60;;;16.50;73.20;;;15.88;58.67;99831.47;9851594;29;96569;-87
2022/06/22 03:57:09;;;;;;;0.88;0.82;;;16.80;72.90;;;16.17;57.86;99822.91;9822716;29;96556;-87
2022/06/22 04:02:17;;;;;;;0.80;0.57;;;17.10;72.00;;;16.44;57.51;99814.75;9827364;29;97694;-87
2022/06/22 04:07:21;;;;;;;1.10;0.70;;;17.30;71.80;;;16.69;57.01;99804.88;9813578;29;96614;-91
2022/06/22 04:12:38;;;;;;;0.95;0.60;;;17.60;71.20;;;17.00;56.77;99787.13;9838549;29;98356;-88
2022/06/22 04:17:54;;;;;;;0.52;0.47;;;17.80;71.40;;;17.31;57.40;99789.72;9821899;29;96785;-89
2022/06/22 04:22:58;;;;;;;0.93;0.55;;;18.20;71.60;;;17.57;57.36;99790.50;9843523;29;96667;-89
2022/06/22 04:28:06;;;;;;;2.67;0.50;;;18.50;71.20;;;17.71;57.25;99783.13;9812384;29;96663;-89
2022/06/22 04:33:36;;;;;;;1.17;0.60;;;18.70;71.40;;;17.74;56.70;99794.25;9835912;29;97618;-89
2022/06/22 04:39:04;;;;;;;0.87;0.50;;;18.70;71.40;;;17.73;56.90;99797.19;9840599;29;97258;-89
2022/06/22 04:44:25;;;;;;;0.90;0.65;;;18.70;71.80;;;17.75;56.58;99812.03;9837720;29;97484;-90
2022/06/22 04:49:41;;;;;;;0.50;0.50;;;18.70;71.10;;;17.82;56.50;99812.78;9843247;29;97562;-90
2022/06/22 04:54:48;;;;;;;1.35;0.77;;;18.80;71.40;;;17.88;56.70;99811.06;9822057;29;96754;-89
2022/06/22 04:59:53;;;;;;;0.60;0.60;;;18.90;71.70;;;17.91;56.34;99815.97;9821236;29;96552;-89
2022/06/22 05:05:07;;;;;;;2.00;0.70;;;18.80;71.40;;;17.98;56.94;99827.47;9830493;29;97690;-90
2022/06/22 05:10:27;;;;;;;0.98;0.60;;;18.90;71.30;;;18.17;56.86;99841.72;9859947;29;98016;-89
2022/06/22 05:15:38;;;;;;;1.25;0.80;;;19.10;71.60;;;18.34;56.35;99850.00;9831574;29;96718;-89
2022/06/22 05:21:21;;;;;;;1.27;0.68;;;19.20;71.20;;;18.55;55.62;99846.00;9851054;29;96883;-91
2022/06/22 05:26:28;;;;;;;1.25;0.68;;;19.40;70.70;;;18.77;54.89;99833.66;9839464;29;97308;-92
2022/06/22 05:31:57;;;;;;;1.08;0.60;;;19.60;70.50;;;19.01;53.00;99849.88;9826481;29;96511;-86
2022/06/22 05:37:32;;;;;;;0.40;0.40;;;19.80;67.90;;;19.23;51.80;99845.59;9833478;29;96973;-88
2022/06/22 05:42:35;;;;;;;0.52;0.47;;;20.10;67.10;;;19.43;50.45;99847.94;9845576;29;96551;-88
2022/06/22 05:47:39;;;;;;;0.88;0.60;;;20.30;66.40;;;19.65;49.00;99853.59;9847004;29;97185;-90
2022/06/22 05:52:54;;;;;;;0.40;0.40;;;20.50;64.50;;;19.90;49.47;99856.03;9832633;29;98112;-90
2022/06/22 05:58:10;;;;;;;0.68;0.38;;;20.70;65.30;;;20.10;47.72;99855.66;9816906;29;97352;-91
2022/06/22 06:03:30;;;;;;;0.32;0.28;;;20.90;62.50;;;20.24;47.77;99857.00;9838429;29;96626;-93
2022/06/22 06:08:42;;;;;;;0.57;0.50;;;21.10;62.70;;;20.35;47.31;99853.44;9866439;29;96506;-86
2022/06/22 06:14:22;;;;;;;0.40;0.30;;;21.10;62.40;;;20.54;46.19;99854.09;9844596;29;96616;-87
2022/06/22 06:19:32;;;;;;;0.40;0.30;;;21.30;60.80;;;20.73;44.96;99857.41;9830881;29;96832;-88
2022/06/22 06:30:29;;;;;;;0.50;0.32;;;21.70;59.30;;;20.91;42.77;99859.91;9837005;29;96752;-86
2022/06/22 06:35:42;;;;;;;0.32;0.32;;;21.80;58.10;;;20.88;42.28;99863.09;9839983;29;98906;-86
2022/06/22 06:41:02;;;;;;;0.47;0.40;;;21.80;57.20;;;20.92;42.60;99869.63;9844800;29;97106;-83
2022/06/22 06:46:20;;;;;;;0.43;0.30;;;21.80;56.40;;;20.85;43.06;99877.09;9844234;29;96828;-87
2022/06/22 06:51:25;;;;;;;0.50;0.40;;;21.80;57.30;;;20.86;43.41;99876.00;9809576;29;96603;-88
2022/06/22 06:56:51;;;;;;;0.52;0.40;;;21.70;57.70;;;21.02;43.60;99863.59;9859447;29;97573;-87
2022/06/22 07:01:54;;;;;;;0.40;0.30;;;21.80;58.50;;;21.14;42.41;99861.66;9824262;29;97471;-87
2022/06/22 07:07:24;;;;;;;1.27;0.55;;;21.90;57.00;;;21.19;42.12;99842.81;9845523;29;96555;-87
2022/06/22 07:12:44;;;;;;;0.65;0.40;;;22.00;57.20;;;21.30;41.67;99836.53;9845526;29;96941;-85
2022/06/22 07:17:59;;;;;;;0.70;0.40;;;22.10;57.30;;;21.46;41.99;99851.09;9832147;29;98359;-85
2022/06/22 07:23:25;;;;;;;0.90;0.40;;;22.40;57.20;;;21.55;41.54;99844.22;9844370;29;96737;-86
2022/06/22 07:28:39;;;;;;;0.75;0.20;;;22.40;55.20;;;21.68;41.03;99850.31;9844181;29;96653;-86
2022/06/22 07:34:11;;;;;;;0.45;0.45;;;22.50;55.50;;;21.78;39.52;99834.25;9844008;29;96791;-85
2022/06/22 07:39:38;;;;;;;0.60;0.32;;;22.60;53.00;;;21.88;40.41;99831.66;9836017;29;97466;-81
2022/06/22 07:44:42;;;;;;;0.40;0.20;;;22.70;55.80;;;22.11;39.33;99833.34;9849560;29;98374;-85
2022/06/22 07:49:53;;;;;;;0.68;0.22;;;22.90;55.20;;;22.23;36.53;99838.63;9807691;29;96665;-88
2022/06/22 07:55:16;;;;;;;0.30;0.20;;;23.10;49.80;;;22.23;35.90;99820.47;9814433;29;96885;-87
2022/06/22 08:00:22;;;;;;;0.55;0.25;;;23.10;50.10;;;22.27;34.87;99810.78;9823105;29;97110;-87
2022/06/22 08:05:37;;;;;;;0.40;0.17;;;23.10;50.50;;;22.51;35.77;99808.59;9836937;29;96746;-84
2022/06/22 08:10:54;;;;;;;0.13;0.10;;;23.30;50.50;;;22.75;35.39;99797.47;9833128;29;96735;-85
2022/06/22 08:16:17;;;;;;;0.95;0.22;;;23.60;51.00;;;22.95;34.98;99803.06;9812052;29;97397;-86
2022/06/22 08:21:21;;;;;;;1.13;0.20;;;23.80;50.70;;;23.03;34.08;99790.91;9844915;29;96477;-85
2022/06/22 08:26:31;;;;;;;0.20;0.15;;;23.90;49.50;;;23.18;34.47;99788.34;9843188;29;96578;-83
2022/06/22 08:32:12;;;;;;;1.25;0.22;;;24.10;50.00;;;23.34;31.70;99781.94;9842327;29;96791;-85
2022/06/22 08:37:33;;;;;;;0.10;0.10;;;24.30;45.50;;;23.41;32.20;99766.25;9821755;29;96675;-85
2022/06/22 08:42:55;;;;;;;2.63;0.20;;;24.30;46.60;;;23.53;31.12;99770.66;9850223;29;97366;-86
2022/06/22 08:48:16;;;;;;;0.25;0.10;;;24.40;46.90;;;23.69;29.96;99785.94;9814108;29;96503;-85
2022/06/22 08:53:40;;;;;;;0.10;0.10;;;24.50;45.30;;;23.92;31.21;99784.69;9833146;29;97673;-86
2022/06/22 08:58:46;;;;;;;0.13;0.13;;;24.80;45.60;;;23.99;30.85;99787.97;9865331;29;97810;-85
2022/06/22 09:04:20;;;;;;;0.57;0.17;;;24.80;45.80;;;24.13;29.27;99786.41;9847175;29;98804;-86
2022/06/22 09:09:38;;;;;;;1.90;0.30;;;25.00;45.00;;;24.33;28.30;99782.09;9850007;29;97489;-85
2022/06/22 09:15:15;;;;;;;0.10;0.00;;;25.20;43.60;;;24.53;26.86;99776.75;9839780;29;98422;-87
2022/06/22 09:20:42;;;;;;;0.30;0.10;;;25.40;42.40;;;24.75;27.48;99779.19;9829743;29;98660;-86
2022/06/22 09:25:58;;;;;;;0.13;0.10;;;25.60;42.50;;;24.97;26.60;99771.59;9863448;29;96465;-86
2022/06/22 09:31:51;;;;;;;0.30;0.00;;;25.80;42.10;;;25.21;26.50;99773.75;9839345;29;96497;-87
2022/06/22 09:37:12;;;;;;;0.35;0.10;;;26.10;41.60;;;25.34;25.46;99760.41;9766397;29;96876;-86
2022/06/22 09:42:33;;;;;;;0.00;0.00;;;26.30;41.50;;;25.46;24.22;99754.66;9852031;29;96709;-86
2022/06/22 09:48:02;;;;;;;0.10;0.05;;;26.40;40.50;;;25.66;24.06;99761.94;9864283;29;96551;-85
2022/06/22 09:53:30;;;;;;;0.57;0.20;;;26.60;38.20;;;25.78;23.71;99748.84;9839618;29;97309;-85
2022/06/22 09:59:11;;;;;;;0.10;0.10;;;26.70;36.50;;;25.81;24.21;99751.03;9836972;29;96600;-88
2022/06/22 10:04:45;;;;;;;0.20;0.15;;;26.70;39.20;;;25.96;24.64;99757.47;9832602;29;98816;-88
2022/06/22 10:10:03;;;;;;;0.40;0.17;;;26.80;37.90;;;25.99;24.39;99744.13;9838326;29;97669;-88
2022/06/22 10:15:57;;;;;;;0.10;0.10;;;26.90;39.40;;;26.13;25.29;99747.03;9847838;29;96679;-89
2022/06/22 10:21:35;;;;;;;0.10;0.10;;;27.00;40.20;;;26.34;23.80;99740.38;9811059;29;99276;-95
2022/06/22 10:27:25;;;;;;;0.80;0.10;;;27.20;38.20;;;26.60;24.22;99732.03;9828065;29;97080;-94
2022/06/22 10:33:15;;;;;;;0.20;0.00;;;27.40;38.80;;;26.75;24.53;99742.81;9851645;29;96755;-95
2022/06/22 10:38:27;;;;;;;0.40;0.20;;;27.60;39.30;;;26.86;23.32;99746.25;9834209;29;97460;-95
2022/06/22 10:50:30;;;;;;;0.30;0.20;;;27.90;39.90;;;27.17;24.35;99744.91;9830951;29;96720;-94
2022/06/22 10:56:24;;;;;;;0.22;0.10;;;28.10;39.60;;;26.99;24.23;99751.06;9796814;29;96681;-92
2022/06/22 11:01:33;;;;;;;0.83;0.20;;;28.00;39.90;;;27.20;25.83;99754.41;9843467;29;96797;-91
2022/06/22 11:06:54;;;;;;;0.15;0.10;;;28.10;41.00;;;27.27;25.22;99745.88;9862495;29;96441;-90
2022/06/22 11:12:37;;;;;;;0.65;0.20;;;28.20;40.30;;;27.31;25.63;99750.47;9813097;29;96800;-92
2022/06/22 11:18:37;;;;;;;0.15;0.10;;;28.20;41.20;;;27.66;25.83;99746.53;9841539;29;97522;-88
2022/06/22 11:24:18;;;;;;;0.22;0.10;;;28.40;41.10;;;27.85;24.47;99751.25;9824417;29;96644;-89
2022/06/22 11:35:29;;;;;;;0.35;0.15;;;28.80;40.10;;;27.95;24.35;99732.81;9833228;29;97459;-89
2022/06/22 11:40:58;;;;;;;0.20;0.17;;;28.70;40.00;;;28.03;24.45;99719.59;9837187;29;97100;-89
2022/06/22 11:46:30;;;;;;;0.22;0.20;;;28.90;40.00;;;28.24;24.53;99720.91;9834120;29;96882;-87
2022/06/22 11:52:03;;;;;;;0.13;0.10;;;29.10;39.20;;;28.49;24.35;99720.56;9832124;29;98106;-89
2022/06/22 11:57:49;;;;;;;0.65;0.20;;;29.30;39.40;;;28.64;23.94;99718.66;9793511;29;96715;-87
2022/06/22 12:03:46;;;;;;;0.10;0.10;;;29.50;39.50;;;28.88;22.68;99697.47;9824852;29;97008;-89
2022/06/22 12:09:41;;;;;;;0.43;0.10;;;29.70;37.50;;;28.87;22.79;99708.72;9843455;29;97759;-86
2022/06/22 12:15:26;;;;;;;0.63;0.30;;;29.70;38.20;;;28.97;23.03;99695.69;9820681;29;96953;-89
2022/06/22 12:20:59;;;;;;;0.10;0.10;;;29.80;38.90;;;29.12;22.94;99693.78;9850901;29;97060;-86
2022/06/22 12:26:43;;;;;;;0.20;0.20;;;29.90;37.70;;;29.34;22.53;99691.16;9813376;29;96524;-86
2022/06/22 12:31:55;;;;;;;0.68;0.22;;;30.10;37.90;;;29.58;22.00;99686.28;9839207;29;97596;-84
2022/06/22 12:37:23;;;;;;;0.15;0.10;;;30.30;38.00;;;29.56;21.32;99685.78;9845890;29;96697;-84
2022/06/22 12:42:59;;;;;;;0.47;0.30;;;30.40;36.10;;;29.67;21.70;99674.63;9832012;29;96754;-86
2022/06/22 12:48:30;;;;;;;0.30;0.15;;;30.50;37.00;;;29.74;22.36;99670.31;9811823;29;97336;-84
2022/06/22 12:53:55;;;;;;;0.13;0.10;;;30.60;37.60;;;29.79;22.80;99666.69;9857199;29;96937;-85
2022/06/22 12:59:13;;;;;;;0.43;0.30;;;30.60;38.50;;;29.95;21.80;99665.22;9833771;29;96676;-84
2022/06/22 13:04:22;;;;;;;0.20;0.10;;;30.70;36.80;;;29.89;20.11;99665.66;9881892;29;96743;-81
2022/06/22 13:09:27;;;;;;;0.20;0.20;;;30.70;36.40;;;29.85;20.66;99659.97;9835060;29;98180;-83
2022/06/22 13:14:34;;;;;;;0.52;0.20;;;30.70;35.50;;;29.79;20.67;99655.72;9839010;29;97668;-84
2022/06/22 13:20:11;;;;;;;0.30;0.20;;;30.60;36.50;;;29.74;21.39;99647.63;9838305;29;98982;-90
2022/06/22 13:25:54;;;;;;;0.52;0.20;;;30.50;36.40;;;29.69;22.11;99645.81;9839072;29;97353;-85
2022/06/22 13:31:31;;;;;;;0.05;0.05;;;30.40;37.40;;;29.94;21.39;99629.91;9837163;29;97426;-88
2022/06/22 13:36:51;;;;;;;0.22;0.20;;;30.60;36.50;;;30.00;21.31;99634.16;9828915;29;96675;-90
2022/06/22 13:42:17;;;;;;;0.35;0.25;;;30.70;36.70;;;30.08;23.19;99634.22;9826221;29;96650;-89
2022/06/22 13:47:46;;;;;;;0.50;0.20;;;30.60;38.00;;;30.39;22.05;99630.75;9824790;29;98550;-89
2022/06/22 13:53:02;;;;;;;0.45;0.10;;;31.00;38.10;;;30.59;22.05;99626.69;9811146;29;96592;-86
2022/06/22 13:58:19;;;;;;;1.15;0.40;;;31.20;37.80;;;30.70;22.47;99627.22;9800028;29;97187;-86
2022/06/22 14:03:56;;;;;;;0.25;0.20;;;31.30;38.60;;;30.75;21.75;99614.19;9831677;29;97265;-87
2022/06/22 14:09:14;;;;;;;0.95;0.32;;;31.30;37.60;;;30.74;22.77;99623.53;9822321;29;96964;-89
2022/06/22 14:14:37;;;;;;;0.45;0.32;;;31.40;38.70;;;30.63;23.97;99609.25;9836565;29;96633;-88
2022/06/22 14:19:59;;;;;;;0.10;0.10;;;31.30;39.60;;;30.52;23.68;99604.38;9812597;29;96750;-90
2022/06/22 14:25:21;;;;;;;0.65;0.30;;;31.10;39.00;;;30.33;23.91;99610.06;9815917;29;97563;-90
2022/06/22 14:30:51;;;;;;;0.65;0.45;;;31.00;39.50;;;30.24;24.17;99609.22;9825172;29;97611;-87
2022/06/22 14:36:47;;;;;;;0.38;0.30;;;30.90;40.10;;;30.17;24.01;99597.88;9856516;29;96652;-88
2022/06/22 14:41:58;;;;;;;0.60;0.40;;;30.80;40.00;;;30.28;23.83;99601.97;9761783;29;97180;-89
2022/06/22 14:47:26;;;;;;;0.52;0.30;;;30.90;39.70;;;30.10;23.85;99592.78;9839892;29;97499;-86
2022/06/22 14:52:52;;;;;;;0.45;0.30;;;30.70;40.00;;;30.05;24.60;99592.94;9811296;29;97818;-86
2022/06/22 14:58:04;;;;;;;0.95;0.82;;;30.60;40.00;;;30.15;25.22;99586.41;9815197;29;98032;-88
2022/06/22 15:04:10;;;;;;;0.22;0.20;;;30.70;40.70;;;30.20;24.62;99583.56;9845570;29;96764;-89
2022/06/22 15:09:50;;;;;;;0.20;0.20;;;30.80;40.00;;;29.77;23.48;99575.81;9716796;29;98543;-88
2022/06/22 15:15:18;;;;;;;;;;;30.50;38.80;;;29.45;23.73;99563.09;9846631;29;96692;-90
2022/06/22 15:20:46;;;;;;;0.40;0.20;;;30.10;38.20;;;29.09;24.66;99565.81;9860359;29;96591;-88
2022/06/22 15:26:24;;;;;;;1.02;0.47;;;29.80;39.90;;;28.95;24.55;99552.16;9830563;29;96635;-90
2022/06/22 15:31:54;;;;;;;0.50;0.38;;;29.60;39.50;;;28.98;24.63;99560.56;9818253;29;96776;-89
2022/06/22 15:37:17;;;;;;;0.45;0.30;;;29.60;39.80;;;29.14;23.71;99554.75;9851459;29;98006;-91
2022/06/22 15:42:30;;;;;;;1.55;0.32;;;29.70;39.30;;;29.30;23.25;99550.56;9843642;29;96901;-92
2022/06/22 15:47:58;;;;;;;1.08;0.40;;;29.80;38.60;;;29.30;22.87;99548.66;9836366;29;97824;-90
2022/06/22 15:53:23;;;;;;;0.50;0.30;;;29.90;38.30;;;29.26;23.45;99549.56;9825722;29;96632;-90
2022/06/22 15:59:06;;;;;;;0.22;0.10;;;29.80;38.70;;;29.28;23.60;99544.63;9826827;29;96590;-93
2022/06/22 16:04:26;;;;;;;1.05;0.40;;;29.90;38.60;;;29.30;24.14;99534.16;9834363;29;96702;-91
2022/06/22 16:09:54;;;;;;;1.50;0.40;;;29.90;39.50;;;29.24;23.49;99529.91;9838150;29;96653;-87
2022/06/22 16:15:39;;;;;;;0.47;0.17;;;29.90;39.30;;;29.11;23.35;99530.75;9841483;29;96544;-86
2022/06/22 16:21:09;;;;;;;1.95;0.20;;;29.80;38.90;;;28.70;23.80;99529.66;9749318;29;97520;-86
2022/06/22 16:26:31;;;;;;;1.17;0.40;;;29.50;38.90;;;28.30;24.66;99528.47;9826132;29;96673;-88
2022/06/22 16:32:13;;;;;;;0.68;0.40;;;29.20;39.50;;;28.12;25.89;99524.69;9829846;29;98544;-86
2022/06/22 16:37:37;;;;;;;2.55;0.28;;;28.90;40.70;;;28.05;25.82;99518.00;9843491;29;96648;-87
2022/06/22 16:42:46;;;;;;;1.23;0.30;;;28.80;41.30;;;28.01;26.63;99506.88;9842219;29;96669;-89
2022/06/22 16:48:34;;;;;;;0.25;0.25;;;28.70;41.60;;;27.92;27.16;99511.41;9859237;29;97677;-86
2022/06/22 16:53:55;;;;;;;0.50;0.30;;;28.60;41.90;;;27.72;27.40;99507.91;9846920;29;97290;-87
2022/06/22 16:59:08;;;;;;;0.68;0.30;;;28.50;42.30;;;27.47;28.21;99505.56;9848876;29;98288;-88
2022/06/22 17:04:46;;;;;;;0.60;0.28;;;28.20;43.00;;;27.13;28.50;99514.75;9850795;29;96705;-89
2022/06/22 17:10:15;;;;;;;1.70;0.50;;;28.00;43.20;;;26.79;28.58;99523.06;9866668;29;98138;-94
2022/06/22 17:16:11;;;;;;;2.67;0.30;;;27.60;43.00;;;26.58;29.07;99517.06;9831382;29;96692;-95
2022/06/22 17:21:49;;;;;;;0.85;0.35;;;27.40;43.80;;;26.36;29.45;99520.25;9820040;29;98360;-94
2022/06/22 17:27:27;;;;;;;0.70;0.28;;;27.20;43.90;;;26.13;29.71;99521.84;9849363;29;96996;-94
2022/06/22 17:32:54;;;;;;;1.10;0.32;;;27.00;44.60;;;25.98;30.45;99519.28;9849834;29;97276;-95
2022/06/22 17:38:07;;;;;;;0.90;0.40;;;26.80;44.20;;;25.86;30.94;99530.53;9866860;29;96629;-94
2022/06/22 17:43:45;;;;;;;0.88;0.40;;;26.70;44.80;;;25.81;31.28;99527.84;9853580;29;96778;-94
2022/06/22 17:48:59;;;;;;;1.17;0.40;;;26.70;45.40;;;25.76;32.17;99529.81;9795490;29;96673;-94
2022/06/22 17:54:43;;;;;;;0.55;0.30;;;26.60;45.70;;;25.62;32.57;99535.88;9830705;29;97657;-95
2022/06/22 18:00:04;;;;;;;2.05;0.22;;;26.60;45.70;;;25.51;33.15;99547.09;9857266;29;96608;-95
2022/06/22 18:05:37;;;;;;;1.33;0.50;;;26.50;46.20;;;25.38;33.48;99548.53;9868460;29;96487;-94
2022/06/22 18:10:40;;;;;;;1.02;0.50;;;26.30;46.90;;;25.22;33.93;99566.84;9863995;29;96733;-95
2022/06/22 18:15:49;;;;;;;0.55;0.40;;;26.20;46.90;;;25.06;33.97;99559.84;9820584;29;97921;-94
2022/06/22 18:20:56;;;;;;;1.70;0.30;;;26.00;47.10;;;24.91;34.39;99578.91;9830667;29;97433;-94
2022/06/22 18:26:08;;;;;;;2.45;0.80;;;25.90;47.40;;;24.73;34.71;99572.16;9840369;29;98115;-94
2022/06/22 18:32:08;;;;;;;1.73;0.57;;;25.70;47.70;;;24.58;35.59;99570.28;9813291;29;96680;-93
2022/06/22 18:37:40;;;;;;;0.57;0.50;;;25.50;48.50;;;24.46;36.37;99576.00;9837207;29;96760;-94
2022/06/22 18:43:16;;;;;;;0.77;0.60;;;25.40;49.80;;;24.30;36.34;99574.41;9833067;29;98674;-94
2022/06/22 18:48:48;;;;;;;1.77;0.80;;;25.20;49.30;;;24.15;37.28;99568.97;9858160;29;96741;-93
2022/06/22 18:54:14;;;;;;;0.85;0.40;;;25.10;51.20;;;23.93;37.08;99564.66;9845942;29;97155;-94
2022/06/22 18:59:33;;;;;;;1.15;0.38;;;24.90;50.60;;;23.78;37.63;99556.47;9829333;29;96736;-95
2022/06/22 19:04:36;;;;;;;0.90;0.40;;;24.70;50.00;;;23.66;37.89;99567.59;9847334;29;97046;-94
2022/06/22 19:09:46;;;;;;;2.20;0.70;;;24.70;50.80;;;23.57;38.95;99571.91;9841006;29;96584;-94
2022/06/22 19:14:50;;;;;;;1.02;0.40;;;24.60;51.00;;;23.51;39.76;99564.84;9837876;29;96772;-95
2022/06/22 19:20:23;;;;;;;0.50;0.50;;;24.60;51.20;;;23.42;39.72;99569.16;9839056;29;96682;-94
2022/06/22 19:25:57;;;;;;;3.05;0.70;;;24.50;52.50;;;23.33;39.79;99557.19;9859978;29;96572;-96
2022/06/22 19:31:41;;;;;;;2.15;0.57;;;24.30;52.60;;;23.24;40.46;99571.25;9839218;29;96705;-94
2022/06/22 19:37:19;;;;;;;0.60;0.40;;;24.30;52.80;;;23.19;40.39;99584.78;9830436;29;96778;-95
2022/06/22 19:43:12;;;;;;;0.47;0.32;;;24.20;52.40;;;23.15;40.55;99588.28;9829786;29;96722;-95
2022/06/22 19:48:37;;;;;;;0.88;0.40;;;24.10;53.30;;;22.91;40.36;99593.34;9829565;29;96637;-94
2022/06/22 19:54:06;;;;;;;0.63;0.40;;;23.90;53.50;;;22.75;40.84;99583.50;9850793;29;97028;-96
2022/06/22 19:59:16;;;;;;;0.75;0.40;;;23.70;53.40;;;22.70;40.07;99587.78;9840365;29;96647;-95
2022/06/22 20:04:36;;;;;;;0.30;0.30;;;23.70;52.90;;;22.73;38.91;99596.44;9842895;29;97895;-94
2022/06/22 20:10:11;;;;;;;1.42;0.52;;;23.60;51.90;;;22.78;38.72;99602.72;9829291;29;98598;-96
2022/06/22 20:15:48;;;;;;;0.73;0.40;;;23.60;51.70;;;22.85;37.97;99597.06;9814861;29;97519;-96
2022/06/22 20:21:03;;;;;;;1.10;0.50;;;23.70;51.20;;;22.91;38.05;99582.50;9827328;29;96699;-96
2022/06/22 20:26:29;;;;;;;0.82;0.30;;;23.70;51.30;;;22.95;37.36;99589.03;9848682;29;97205;-95
2022/06/22 20:32:14;;;;;;;0.80;0.50;;;23.80;50.80;;;23.00;36.62;99585.53;9871041;29;96704;-87
2022/06/22 20:37:23;;;;;;;1.08;0.32;;;23.90;50.50;;;23.04;36.66;99583.94;9839621;29;96944;-88
2022/06/22 20:43:04;;;;;;;1.15;0.50;;;23.90;50.30;;;23.06;36.22;99574.44;9846671;29;96742;-85
2022/06/22 20:48:47;;;;;;;1.00;0.35;;;23.90;49.90;;;23.07;36.09;99575.25;9839089;29;97458;-86
2022/06/22 20:54:04;;;;;;;0.38;0.30;;;23.90;49.80;;;23.07;37.88;99584.19;9861422;29;97474;-85
2022/06/22 20:59:34;;;;;;;1.25;0.52;;;24.00;50.40;;;23.02;39.36;99572.53;9837016;29;97636;-85
2022/06/22 21:04:49;;;;;;;0.38;0.35;;;24.00;51.90;;;22.91;40.67;99577.91;9849492;29;96632;-85
2022/06/22 21:10:02;;;;;;;2.65;0.60;;;23.90;53.10;;;22.78;40.55;99578.34;9832535;29;96659;-85
2022/06/22 21:15:07;;;;;;;1.98;0.50;;;23.70;53.00;;;22.64;41.76;99579.91;9826448;29;98389;-85
2022/06/22 21:20:23;;;;;;;1.23;0.70;;;23.60;53.70;;;22.57;42.19;99588.25;9861622;29;96720;-85
2022/06/22 21:25:27;;;;;;;0.73;0.32;;;23.60;54.10;;;22.53;42.54;99579.00;9844681;29;96665;-85
2022/06/22 21:30:38;;;;;;;1.30;0.60;;;23.50;54.30;;;22.48;43.04;99578.16;9837700;29;96814;-85
2022/06/22 21:35:47;;;;;;;1.00;0.50;;;23.40;55.30;;;22.41;43.06;99572.97;9829864;29;96769;-85
2022/06/22 21:41:18;;;;;;;;;;;23.40;55.60;;;22.32;43.64;99582.69;9818582;29;96868;-85
2022/06/22 21:46:47;;;;;;;0.60;0.50;;;23.30;56.50;;;22.25;43.08;99574.78;9822273;29;96643;-85
2022/06/22 21:52:09;;;;;;;0.25;0.25;;;23.30;55.40;;;22.20;42.37;99579.34;9841887;29;98980;-85
2022/06/22 21:57:43;;;;;;;1.90;0.50;;;23.20;55.10;;;22.13;42.55;99587.66;9848064;29;96577;-85
2022/06/22 22:02:58;;;;;;;0.40;0.40;;;23.10;56.00;;;22.04;41.97;99562.94;9860932;29;97699;-85
2022/06/22 22:08:14;;;;;;;2.13;0.65;;;23.00;54.90;;;22.06;42.67;99570.78;9828298;29;96602;-85
2022/06/22 22:13:20;;;;;;;0.68;0.40;;;23.00;55.10;;;22.01;42.30;99577.00;9847879;29;96940;-85
2022/06/22 22:18:25;;;;;;;1.23;0.50;;;23.00;55.30;;;22.00;42.31;99564.53;9836904;29;98813;-85
2022/06/22 22:23:39;;;;;;;2.10;0.40;;;22.90;55.00;;;22.00;43.04;99558.28;9846098;29;96920;-85
2022/06/22 22:29:04;;;;;;;0.30;0.30;;;22.90;55.50;;;21.95;42.64;99560.97;9803724;29;99197;-85
2022/06/22 22:34:32;;;;;;;0.70;0.50;;;22.90;55.40;;;21.94;42.55;99567.44;9823909;29;96666;-85
2022/06/22 22:39:37;;;;;;;0.70;0.50;;;22.90;55.50;;;21.96;42.85;99565.31;9810038;29;96711;-86
2022/06/22 22:44:44;;;;;;;1.33;0.40;;;22.90;55.20;;;22.01;42.84;99578.88;9813906;29;96628;-85
2022/06/22 22:49:49;;;;;;;0.52;0.38;;;22.90;55.50;;;21.99;43.85;99573.72;9844739;29;96875;-85
2022/06/22 22:55:20;;;;;;;0.50;0.40;;;23.00;55.60;;;21.98;43.86;99580.22;9827933;29;97438;-85
2022/06/22 23:00:28;;;;;;;;;;;22.90;56.50;;;21.95;44.40;99577.19;9820602;29;97835;-85
2022/06/22 23:05:35;;;;;;;0.85;0.50;;;22.90;57.00;;;21.89;44.45;99584.44;9795137;29;96861;-85
2022/06/22 23:10:57;;;;;;;1.38;0.50;;;22.90;57.10;;;21.87;44.89;99584.69;9821626;29;96594;-85